createdAt,value
2022-09-09T00:01:31.623Z,59.85
2022-09-09T00:04:09.017Z,59.85
2022-09-09T00:06:48.795Z,60.03
2022-09-09T00:09:21.314Z,60.02
2022-09-09T00:11:59.197Z,60.06
2022-09-09T00:14:41.030Z,59.81
2022-09-09T00:17:16.855Z,59.81
2022-09-09T00:19:57.025Z,59.59
2022-09-09T00:22:29.237Z,59.45
2022-09-09T00:25:01.572Z,59.70
2022-09-09T00:27:36.709Z,59.71
2022-09-09T00:30:20.788Z,59.69
2022-09-09T00:32:52.131Z,59.60
2022-09-09T00:35:27.987Z,59.63
2022-09-09T00:38:03.831Z,59.75
2022-09-09T00:40:38.031Z,59.41
2022-09-09T00:43:28.621Z,59.54
2022-09-09T00:46:33.625Z,59.73
2022-09-09T00:49:10.324Z,59.69
2022-09-09T00:51:52.402Z,59.51
2022-09-09T00:54:38.952Z,59.46
2022-09-09T00:57:18.311Z,59.22
2022-09-09T00:59:51.762Z,59.33
2022-09-09T01:02:31.848Z,59.34
2022-09-09T01:05:08.909Z,59.45
2022-09-09T01:07:41.296Z,59.24
2022-09-09T01:10:18.879Z,59.30
2022-09-09T01:12:51.106Z,59.21
2022-09-09T01:15:29.563Z,59.00
2022-09-09T01:18:05.048Z,59.15
2022-09-09T01:20:48.652Z,59.08
2022-09-09T01:23:40.659Z,59.13
2022-09-09T01:26:34.307Z,58.81
2022-09-09T01:29:11.755Z,59.20
2022-09-09T01:31:46.276Z,59.01
2022-09-09T01:34:17.169Z,59.15
2022-09-09T01:36:54.119Z,58.79
2022-09-09T01:39:24.606Z,59.07
2022-09-09T01:42:07.229Z,58.94
2022-09-09T01:44:39.492Z,59.06
2022-09-09T01:47:10.318Z,59.20
2022-09-09T01:49:55.694Z,59.02
2022-09-09T01:52:29.262Z,58.84
2022-09-09T01:54:59.420Z,58.89
2022-09-09T01:57:47.382Z,58.86
2022-09-09T02:00:19.172Z,58.71
2022-09-09T02:03:04.390Z,58.44
2022-09-09T02:05:43.867Z,58.48
2022-09-09T02:08:27.293Z,58.80
2022-09-09T02:11:09.400Z,58.68
2022-09-09T02:14:00.415Z,58.70
2022-09-09T02:16:37.757Z,58.60
2022-09-09T02:19:13.837Z,58.61
2022-09-09T02:22:01.696Z,58.40
2022-09-09T02:24:35.383Z,58.35
2022-09-09T02:27:22.749Z,58.74
2022-09-09T02:29:57.379Z,58.60
2022-09-09T02:32:40.624Z,58.73
2022-09-09T02:35:15.941Z,58.98
2022-09-09T02:37:51.105Z,58.74
2022-09-09T02:40:22.437Z,58.63
2022-09-09T02:43:01.140Z,58.53
2022-09-09T02:45:45.015Z,58.83
2022-09-09T02:48:24.325Z,58.70
2022-09-09T02:51:03.984Z,58.58
2022-09-09T02:53:43.462Z,58.47
2022-09-09T02:56:19.704Z,58.58
2022-09-09T02:58:52.949Z,58.57
2022-09-09T03:01:25.906Z,58.73
2022-09-09T03:03:56.129Z,58.69
2022-09-09T03:06:28.344Z,58.45
2022-09-09T03:09:06.615Z,58.63
2022-09-09T03:11:36.693Z,58.67
2022-09-09T03:14:06.911Z,58.38
2022-09-09T03:16:39.449Z,58.36
2022-09-09T03:19:10.436Z,58.62
2022-09-09T03:21:40.179Z,58.54
2022-09-09T03:24:10.753Z,58.43
2022-09-09T03:26:41.224Z,58.57
2022-09-09T03:29:16.589Z,58.64
2022-09-09T03:31:49.738Z,58.48
2022-09-09T03:34:19.625Z,58.35
2022-09-09T03:36:49.875Z,58.43
2022-09-09T03:39:19.991Z,58.29
2022-09-09T03:41:50.241Z,58.19
2022-09-09T03:44:21.094Z,58.63
2022-09-09T03:46:53.474Z,58.48
2022-09-09T03:49:23.857Z,58.16
2022-09-09T03:51:53.976Z,57.98
2022-09-09T03:54:24.073Z,58.27
2022-09-09T03:56:53.960Z,58.46
2022-09-09T03:59:29.267Z,58.07
2022-09-09T04:02:03.465Z,58.26
2022-09-09T04:04:33.364Z,58.28
2022-09-09T04:07:03.225Z,58.05
2022-09-09T04:09:33.258Z,58.05
2022-09-09T04:12:04.471Z,57.92
2022-09-09T04:14:35.566Z,57.82
2022-09-09T04:17:09.852Z,57.98
2022-09-09T04:19:40.630Z,57.73
2022-09-09T04:22:11.408Z,57.71
2022-09-09T04:24:48.536Z,57.37
2022-09-09T04:27:19.410Z,57.60
2022-09-09T04:29:49.433Z,57.67
2022-09-09T04:32:22.818Z,57.69
2022-09-09T04:34:52.612Z,57.76
2022-09-09T04:37:22.653Z,57.80
2022-09-09T04:39:52.777Z,57.61
2022-09-09T04:42:22.628Z,57.79
2022-09-09T04:44:52.467Z,57.93
2022-09-09T04:47:24.829Z,57.84
2022-09-09T04:49:55.781Z,57.63
2022-09-09T04:52:25.853Z,57.64
2022-09-09T04:54:55.630Z,57.72
2022-09-09T04:57:25.468Z,57.36
2022-09-09T04:59:55.243Z,57.45
2022-09-09T05:02:31.466Z,57.23
2022-09-09T05:05:02.003Z,57.35
2022-09-09T05:07:32.387Z,57.08
2022-09-09T05:10:05.696Z,57.14
2022-09-09T05:12:36.048Z,56.88
2022-09-09T05:15:06.609Z,56.85
2022-09-09T05:17:39.399Z,56.88
2022-09-09T05:20:14.488Z,56.87
2022-09-09T05:22:46.601Z,56.54
2022-09-09T05:25:16.653Z,56.46
2022-09-09T05:27:46.393Z,56.25
2022-09-09T05:30:16.878Z,56.35
2022-09-09T05:32:49.938Z,56.35
2022-09-09T05:35:21.759Z,56.13
2022-09-09T05:37:51.560Z,56.22
2022-09-09T05:40:22.612Z,56.10
2022-09-09T05:42:54.586Z,55.96
2022-09-09T05:45:25.065Z,56.34
2022-09-09T05:48:02.514Z,55.97
2022-09-09T05:50:33.508Z,55.23
2022-09-09T05:53:04.635Z,55.22
2022-09-09T05:55:34.690Z,55.30
2022-09-09T05:58:05.288Z,55.12
2022-09-09T06:00:35.489Z,55.34
2022-09-09T06:03:08.786Z,55.35
2022-09-09T06:05:39.232Z,54.85
2022-09-09T06:08:09.103Z,54.25
2022-09-09T06:10:38.974Z,55.30
2022-09-09T06:13:11.070Z,54.86
2022-09-09T06:15:42.251Z,54.90
2022-09-09T06:18:14.788Z,54.42
2022-09-09T06:20:44.670Z,53.88
2022-09-09T06:23:14.669Z,54.18
2022-09-09T06:25:44.570Z,54.03
2022-09-09T06:28:14.589Z,54.01
2022-09-09T06:30:45.605Z,53.72
2022-09-09T06:33:18.319Z,53.88
2022-09-09T06:35:55.264Z,54.21
2022-09-09T06:38:25.535Z,53.20
2022-09-09T06:40:59.554Z,52.99
2022-09-09T06:43:30.092Z,53.40
2022-09-09T06:46:01.093Z,52.99
2022-09-09T06:48:33.767Z,52.64
2022-09-09T06:51:05.938Z,52.63
2022-09-09T06:53:36.747Z,51.95
2022-09-09T06:56:22.765Z,52.50
2022-09-09T06:58:54.478Z,51.47
2022-09-09T07:01:31.592Z,51.15
2022-09-09T07:04:09.129Z,51.12
2022-09-09T07:06:41.951Z,50.34
2022-09-09T07:09:16.026Z,50.92
2022-09-09T07:11:49.334Z,50.72
2022-09-09T07:14:20.719Z,51.43
2022-09-09T07:16:59.309Z,50.50
2022-09-09T07:19:32.623Z,51.39
2022-09-09T07:22:03.594Z,51.23
2022-09-09T07:24:34.444Z,50.13
2022-09-09T07:27:04.590Z,50.33
2022-09-09T07:29:35.052Z,50.02
2022-09-09T07:32:05.477Z,50.17
2022-09-09T07:34:41.796Z,49.67
2022-09-09T07:37:12.878Z,50.37
2022-09-09T07:39:45.706Z,50.02
2022-09-09T07:42:16.294Z,49.75
2022-09-09T07:44:46.351Z,49.44
2022-09-09T07:47:18.832Z,49.30
2022-09-09T07:49:53.488Z,49.99
2022-09-09T07:52:28.796Z,49.06
2022-09-09T07:55:03.317Z,48.33
2022-09-09T07:57:34.446Z,47.82
2022-09-09T08:00:11.408Z,48.10
2022-09-09T08:02:47.440Z,48.36
2022-09-09T08:05:20.040Z,47.66
2022-09-09T08:07:51.481Z,47.66
2022-09-09T08:10:21.975Z,46.83
2022-09-09T08:13:14.803Z,47.42
2022-09-09T08:15:44.494Z,47.77
2022-09-09T08:18:15.066Z,48.24
2022-09-09T08:20:47.525Z,46.93
2022-09-09T08:23:18.049Z,47.54
2022-09-09T08:25:49.847Z,47.44
2022-09-09T08:28:19.911Z,47.61
2022-09-09T08:30:49.994Z,47.21
2022-09-09T08:33:20.539Z,47.37
2022-09-09T08:35:56.384Z,46.65
2022-09-09T08:38:26.498Z,46.50
2022-09-09T08:41:03.579Z,46.04
2022-09-09T08:43:36.101Z,45.78
2022-09-09T08:46:13.763Z,46.55
2022-09-09T08:48:56.123Z,46.83
2022-09-09T08:51:32.440Z,47.21
2022-09-09T08:54:06.750Z,47.85
2022-09-09T08:56:37.259Z,47.96
2022-09-09T08:59:07.944Z,48.40
2022-09-09T09:01:52.995Z,48.21
2022-09-09T09:04:50.318Z,48.83
2022-09-09T09:07:33.143Z,47.58
2022-09-09T09:10:37.687Z,48.03
2022-09-09T09:13:06.878Z,48.00
2022-09-09T09:15:41.600Z,48.08
2022-09-09T09:18:17.046Z,48.09
2022-09-09T09:20:55.607Z,48.52
2022-09-09T09:23:29.965Z,48.27
2022-09-09T09:26:04.033Z,48.15
2022-09-09T09:28:37.322Z,47.35
2022-09-09T09:31:15.782Z,47.29
2022-09-09T09:33:54.237Z,47.69
2022-09-09T09:36:37.086Z,46.34
2022-09-09T09:42:15.519Z,44.64
2022-09-09T09:44:49.446Z,43.67
2022-09-09T09:47:24.467Z,43.40
2022-09-09T09:50:23.574Z,43.01
2022-09-09T09:53:00.423Z,43.27
2022-09-09T09:55:38.041Z,42.33
2022-09-09T09:58:09.796Z,41.76
2022-09-09T10:00:52.421Z,42.37
2022-09-09T10:03:28.252Z,41.71
2022-09-09T10:05:59.942Z,41.01
2022-09-09T10:08:31.219Z,39.31
2022-09-09T10:11:25.877Z,39.10
2022-09-09T10:14:07.775Z,37.74
2022-09-09T10:16:50.161Z,38.15
2022-09-09T10:19:24.641Z,37.33
2022-09-09T10:22:07.759Z,36.75
2022-09-09T10:25:09.861Z,37.74
2022-09-09T10:27:57.778Z,37.58
2022-09-09T10:30:35.706Z,36.20
2022-09-09T10:33:12.632Z,36.32
2022-09-09T10:35:53.143Z,35.20
2022-09-09T10:38:29.163Z,35.42
2022-09-09T10:41:14.848Z,35.49
2022-09-09T10:44:06.196Z,36.12
2022-09-09T10:46:48.376Z,35.49
2022-09-09T10:49:34.405Z,35.47
2022-09-09T10:52:11.950Z,36.58
2022-09-09T10:55:00.925Z,37.30
2022-09-09T10:57:37.474Z,37.76
2022-09-09T11:00:18.282Z,38.66
2022-09-09T11:02:49.047Z,39.24
2022-09-09T11:05:22.902Z,39.72
2022-09-09T11:07:59.798Z,39.97
2022-09-09T11:10:43.923Z,38.90
2022-09-09T11:13:19.551Z,37.46
2022-09-09T11:15:56.041Z,35.24
2022-09-09T11:18:27.462Z,33.03
2022-09-09T11:21:03.151Z,30.20
2022-09-09T11:23:42.469Z,27.98
2022-09-09T11:26:19.770Z,26.53
2022-09-09T11:29:05.066Z,25.75
2022-09-09T11:32:04.168Z,25.58
2022-09-09T11:34:54.603Z,25.09
2022-09-09T11:37:49.113Z,26.60
2022-09-09T11:40:23.740Z,28.27
2022-09-09T11:43:06.985Z,29.88
2022-09-09T11:45:39.271Z,27.68
2022-09-09T11:48:28.677Z,25.65
2022-09-09T11:51:06.828Z,26.73
2022-09-09T11:53:37.954Z,25.24
2022-09-09T11:56:12.241Z,24.89
2022-09-09T11:58:46.642Z,22.63
2022-09-09T12:01:18.669Z,22.65
2022-09-09T12:03:54.839Z,22.56
2022-09-09T12:06:34.926Z,23.49
2022-09-09T12:09:12.169Z,24.61
2022-09-09T12:11:42.510Z,23.72
2022-09-09T12:14:24.003Z,24.58
2022-09-09T12:16:54.888Z,24.85
2022-09-09T12:19:27.376Z,25.75
2022-09-09T12:22:05.108Z,27.28
2022-09-09T12:24:40.833Z,27.92
2022-09-09T12:27:19.192Z,28.18
2022-09-09T12:29:57.961Z,29.89
2022-09-09T12:32:30.191Z,30.67
2022-09-09T12:35:06.808Z,32.02
2022-09-09T12:37:40.589Z,31.78
2022-09-09T12:40:24.108Z,33.57
2022-09-09T12:42:55.021Z,33.83
2022-09-09T12:45:27.009Z,34.02
2022-09-09T12:48:00.265Z,35.65
2022-09-09T12:50:35.890Z,35.57
2022-09-09T12:53:11.109Z,36.27
2022-09-09T12:55:43.040Z,36.60
2022-09-09T13:10:36.662Z,37.09
2022-09-09T13:13:18.129Z,37.45
2022-09-09T13:15:54.906Z,38.04
2022-09-09T13:18:27.674Z,37.73
2022-09-09T13:20:58.966Z,37.76
2022-09-09T13:23:32.119Z,37.81
2022-09-09T13:26:08.763Z,38.37
2022-09-09T13:28:38.843Z,39.16
2022-09-09T13:31:22.883Z,38.18
2022-09-09T13:33:54.187Z,38.26
2022-09-09T13:36:33.110Z,37.95
2022-09-09T13:39:05.187Z,37.90
2022-09-09T13:41:40.111Z,37.97
2022-09-09T13:44:10.140Z,37.61
2022-09-09T13:46:41.610Z,37.59
2022-09-09T13:49:24.780Z,38.35
2022-09-09T13:51:56.469Z,38.40
2022-09-09T13:54:26.577Z,38.45
2022-09-09T13:56:58.967Z,38.73
2022-09-09T13:59:53.910Z,38.92
2022-09-09T14:02:19.157Z,39.41
2022-09-09T14:04:51.838Z,40.24
2022-09-09T14:07:22.538Z,40.39
2022-09-09T14:09:53.510Z,40.02
2022-09-09T14:12:25.940Z,41.12
2022-09-09T14:14:55.738Z,40.91
2022-09-09T14:17:26.197Z,40.46
2022-09-09T14:19:56.000Z,40.56
2022-09-09T14:22:26.488Z,40.13
2022-09-09T14:24:56.273Z,40.39
2022-09-09T14:27:29.734Z,40.39
2022-09-09T14:30:01.045Z,39.64
2022-09-09T14:32:31.162Z,39.60
2022-09-09T14:35:01.065Z,39.28
2022-09-09T14:37:32.182Z,39.84
2022-09-09T14:40:02.200Z,40.52
2022-09-09T14:42:34.719Z,39.38
2022-09-09T14:45:04.815Z,39.67
2022-09-09T14:47:34.742Z,40.38
2022-09-09T14:50:06.028Z,39.63
2022-09-09T14:52:36.009Z,39.09
2022-09-09T14:55:06.076Z,39.62
2022-09-09T14:57:40.127Z,39.46
2022-09-09T15:00:12.324Z,39.58
2022-09-09T15:02:42.278Z,40.00
2022-09-09T15:05:13.056Z,39.68
2022-09-09T15:07:43.494Z,39.89
2022-09-09T15:10:13.584Z,39.84
2022-09-09T15:12:45.967Z,39.92
2022-09-09T15:15:16.365Z,40.71
2022-09-09T15:17:46.160Z,41.11
2022-09-09T15:20:17.718Z,40.86
2022-09-09T15:22:47.545Z,41.15
2022-09-09T15:25:18.857Z,40.96
2022-09-09T15:27:51.400Z,41.62
2022-09-09T15:30:21.285Z,40.88
2022-09-09T15:32:51.100Z,40.92
2022-09-09T15:35:20.961Z,41.15
2022-09-09T15:37:50.740Z,41.23
2022-09-09T15:40:20.549Z,41.50
2022-09-09T15:42:53.026Z,41.28
2022-09-09T15:45:22.971Z,40.25
2022-09-09T15:47:53.331Z,39.43
2022-09-09T15:50:23.220Z,40.00
2022-09-09T15:52:54.020Z,39.89
2022-09-09T15:55:25.306Z,40.34
2022-09-09T15:57:58.790Z,40.49
2022-09-09T16:00:30.088Z,39.99
2022-09-09T16:02:59.902Z,40.55
2022-09-09T16:05:29.721Z,40.30
2022-09-09T16:07:59.576Z,40.37
2022-09-09T16:10:29.420Z,40.45
2022-09-09T16:13:02.367Z,40.23
2022-09-09T16:15:32.436Z,39.16
2022-09-09T16:18:02.296Z,39.52
2022-09-09T16:20:32.290Z,39.92
2022-09-09T16:23:03.034Z,39.78
2022-09-09T16:25:32.860Z,41.36
2022-09-09T16:28:05.593Z,42.16
2022-09-09T16:30:35.501Z,42.62
2022-09-09T16:33:05.301Z,42.97
2022-09-09T16:35:35.126Z,43.08
2022-09-09T16:38:04.978Z,44.13
2022-09-09T16:40:37.644Z,44.66
2022-09-09T16:43:12.237Z,44.44
2022-09-09T16:45:46.220Z,44.40
2022-09-09T16:48:16.171Z,44.83
2022-09-09T16:50:47.006Z,44.68
2022-09-09T16:53:16.843Z,45.32
2022-09-09T16:55:46.654Z,45.54
2022-09-09T16:58:19.031Z,45.77
2022-09-09T17:00:49.410Z,45.48
2022-09-09T17:03:19.279Z,45.58
2022-09-09T17:05:49.353Z,45.25
2022-09-09T17:08:19.188Z,44.94
2022-09-09T17:10:49.141Z,43.74
2022-09-09T17:13:22.109Z,44.03
2022-09-09T17:15:52.100Z,43.93
2022-09-09T17:18:22.173Z,43.44
2022-09-09T17:20:51.998Z,43.84
2022-09-09T17:23:21.787Z,42.90
2022-09-09T17:26:01.077Z,42.65
2022-09-09T17:28:33.578Z,42.11
2022-09-09T17:31:05.811Z,41.33
2022-09-09T17:33:35.754Z,41.72
2022-09-09T17:36:11.913Z,40.98
2022-09-09T17:38:43.600Z,41.79
2022-09-09T17:41:17.027Z,41.62
2022-09-09T17:43:50.548Z,41.47
2022-09-09T17:46:23.032Z,41.64
2022-09-09T17:48:54.735Z,41.37
2022-09-09T17:51:28.984Z,41.00
2022-09-09T17:54:00.616Z,41.71
2022-09-09T17:56:32.430Z,41.79
2022-09-09T17:59:06.427Z,42.07
2022-09-09T18:01:39.606Z,41.36
2022-09-09T18:04:14.215Z,42.21
2022-09-09T18:06:45.853Z,42.02
2022-09-09T18:09:17.947Z,42.01
2022-09-09T18:11:49.770Z,42.82
2022-09-09T18:14:24.989Z,42.04
2022-09-09T18:16:55.341Z,42.38
2022-09-09T18:19:27.075Z,42.51
2022-09-09T18:22:00.191Z,42.39
2022-09-09T18:24:33.485Z,42.81
2022-09-09T18:27:03.790Z,43.22
2022-09-09T18:29:36.536Z,43.57
2022-09-09T18:32:06.497Z,43.37
2022-09-09T18:34:36.621Z,43.90
2022-09-09T18:37:08.025Z,43.66
2022-09-09T18:39:37.798Z,44.15
2022-09-09T18:42:08.012Z,45.74
2022-09-09T18:44:40.427Z,45.16
2022-09-09T18:47:10.958Z,45.36
2022-09-09T18:49:40.763Z,45.79
2022-09-09T18:52:12.902Z,45.90
2022-09-09T18:54:45.974Z,46.08
2022-09-09T18:57:15.846Z,46.29
2022-09-09T18:59:49.266Z,46.46
2022-09-09T19:02:19.738Z,46.71
2022-09-09T19:04:50.295Z,45.94
2022-09-09T19:07:21.838Z,46.49
2022-09-09T19:09:53.454Z,45.71
2022-09-09T19:12:24.267Z,46.24
2022-09-09T19:14:56.768Z,46.05
2022-09-09T19:17:27.517Z,46.23
2022-09-09T19:19:57.572Z,46.13
2022-09-09T19:22:27.537Z,46.55
2022-09-09T19:24:59.238Z,45.73
2022-09-09T19:27:29.144Z,46.39
2022-09-09T19:30:01.516Z,45.81
2022-09-09T19:32:52.676Z,46.27
2022-09-09T19:35:21.223Z,46.17
2022-09-09T19:37:51.043Z,46.54
2022-09-09T19:40:22.193Z,46.21
2022-09-09T19:42:54.016Z,46.26
2022-09-09T19:45:27.654Z,46.66
2022-09-09T19:47:57.496Z,46.15
2022-09-09T19:50:28.315Z,46.90
2022-09-09T19:52:58.097Z,46.34
2022-09-09T19:55:28.960Z,46.92
2022-09-09T19:57:58.977Z,47.25
2022-09-09T20:00:31.574Z,47.66
2022-09-09T20:03:18.208Z,47.46
2022-09-09T20:05:49.365Z,47.36
2022-09-09T20:08:19.297Z,47.77
2022-09-09T20:10:57.182Z,47.94
2022-09-09T20:13:27.377Z,48.07
2022-09-09T20:16:05.876Z,47.49
2022-09-09T20:18:37.574Z,47.77
2022-09-09T20:21:09.636Z,47.31
2022-09-09T20:23:40.107Z,46.99
2022-09-09T20:26:12.950Z,46.98
2022-09-09T20:28:44.325Z,46.11
2022-09-09T20:31:19.108Z,46.64
2022-09-09T20:33:50.375Z,46.90
2022-09-09T20:36:21.605Z,46.21
2022-09-09T20:38:53.165Z,46.12
2022-09-09T20:41:24.765Z,46.26
2022-09-09T20:43:56.063Z,46.17
2022-09-09T20:46:30.928Z,45.89
2022-09-09T20:49:03.278Z,46.19
2022-09-09T20:51:34.489Z,46.63
2022-09-09T20:54:06.705Z,46.11
2022-09-09T20:56:39.440Z,45.68
2022-09-09T20:59:10.350Z,46.06
2022-09-09T21:01:43.982Z,45.89
2022-09-09T21:04:13.806Z,45.99
2022-09-09T21:06:43.686Z,45.69
2022-09-09T21:09:13.577Z,45.84
2022-09-09T21:11:43.795Z,45.81
2022-09-09T21:14:13.825Z,46.80
2022-09-09T21:16:46.230Z,45.92
2022-09-09T21:19:16.068Z,46.33
2022-09-09T21:21:46.696Z,45.79
2022-09-09T21:24:31.745Z,46.17
2022-09-09T21:27:01.672Z,46.80
2022-09-09T21:29:31.458Z,46.72
2022-09-09T21:32:03.995Z,46.42
2022-09-09T21:34:36.412Z,46.64
2022-09-09T21:37:06.362Z,46.34
2022-09-09T21:39:36.875Z,46.68
2022-09-09T21:42:07.836Z,46.83
2022-09-09T21:44:37.722Z,47.02
2022-09-09T21:47:10.310Z,47.51
2022-09-09T21:49:40.069Z,47.34
2022-09-09T21:52:09.909Z,47.84
2022-09-09T21:54:40.213Z,47.67
2022-09-09T21:57:09.979Z,47.72
2022-09-09T21:59:40.639Z,48.15
2022-09-09T22:02:14.153Z,48.35
2022-09-09T22:04:44.054Z,48.88
2022-09-09T22:07:16.770Z,48.93
2022-09-09T22:09:46.591Z,48.50
2022-09-09T22:12:16.730Z,48.53
2022-09-09T22:14:46.506Z,48.94
2022-09-09T22:17:18.881Z,48.46
2022-09-09T22:19:49.223Z,48.91
2022-09-09T22:22:18.974Z,48.33
2022-09-09T22:24:49.020Z,48.67
2022-09-09T22:27:19.014Z,48.65
2022-09-09T22:29:48.916Z,48.35
2022-09-09T22:32:21.300Z,48.53
2022-09-09T22:34:51.295Z,48.55
2022-09-09T22:37:23.028Z,49.18
2022-09-09T22:39:52.844Z,48.68
2022-09-09T22:42:22.831Z,48.57
2022-09-09T22:44:52.562Z,48.43
2022-09-09T22:47:25.068Z,48.60
2022-09-09T22:49:55.056Z,48.92
2022-09-09T22:52:25.242Z,49.36
2022-09-09T22:54:55.141Z,48.96
2022-09-09T22:57:24.887Z,49.38
2022-09-09T22:59:55.117Z,49.17
2022-09-09T23:02:28.035Z,49.00
2022-09-09T23:05:00.434Z,49.19
2022-09-09T23:07:30.282Z,49.09
2022-09-09T23:10:00.135Z,48.75
2022-09-09T23:12:30.240Z,49.16
2022-09-09T23:15:00.005Z,49.05
2022-09-09T23:17:34.329Z,49.00
2022-09-09T23:20:04.575Z,49.31
2022-09-09T23:22:36.430Z,49.67
2022-09-09T23:25:07.441Z,49.43
2022-09-09T23:27:38.693Z,49.10
2022-09-09T23:30:11.083Z,49.97
2022-09-09T23:32:47.042Z,49.28
2022-09-09T23:35:17.567Z,49.08
2022-09-09T23:37:48.077Z,49.29
2022-09-09T23:40:18.135Z,49.37
2022-09-09T23:42:48.861Z,49.90
2022-09-09T23:45:18.735Z,49.63
2022-09-09T23:47:51.131Z,49.56
2022-09-09T23:50:21.057Z,49.82
2022-09-09T23:52:52.336Z,50.24
2022-09-09T23:55:23.881Z,49.87
2022-09-09T23:57:55.129Z,49.78
